Time;durP1;ratioP1;P1;durP2;ratioP2;P2;SDS_P1;SDS_P2;PMS_P1;PMS_P2;Temp;Humidity;BMP_temperature;BMP_pressure;BME280_temperature;BME280_humidity;BME280_pressure;Samples;Min_cycle;Max_cycle;Signal;HPM_P1;HPM_P2
2021/06/30 00:03:35;;;;;;;11.02;6.32;;;;;;;14.54;91.24;99808.81;10348919;28;20226;-74
2021/06/30 00:08:43;;;;;;;18.92;9.82;;;;;;;14.89;89.97;99797.91;10348752;28;20278;-73
2021/06/30 00:13:46;;;;;;;18.73;10.45;;;;;;;14.92;91.04;99803.84;10381557;28;20212;-74
2021/06/30 00:18:55;;;;;;;19.40;11.23;;;;;;;15.36;90.76;99824.34;10383667;28;20206;-74
2021/06/30 00:24:04;;;;;;;25.75;11.15;;;;;;;15.34;89.38;99820.97;10349165;28;20207;-75
2021/06/30 00:29:12;;;;;;;21.98;11.27;;;;;;;15.25;88.81;99822.81;10348392;28;20207;-74
2021/06/30 00:34:21;;;;;;;22.30;10.40;;;;;;;15.23;88.09;99827.53;10346760;28;20200;-74
2021/06/30 00:39:29;;;;;;;25.65;10.02;;;;;;;15.24;88.60;99826.53;10347965;28;20289;-74
2021/06/30 00:44:36;;;;;;;20.83;11.70;;;;;;;15.13;88.15;99830.41;10347372;28;20212;-73
2021/06/30 00:49:45;;;;;;;22.73;11.57;;;;;;;15.12;87.93;99828.72;10347825;28;20194;-74
2021/06/30 00:54:54;;;;;;;17.92;10.60;;;;;;;15.24;88.59;99827.38;10347436;28;20235;-73
2021/06/30 01:00:03;;;;;;;24.10;11.95;;;;;;;15.34;88.29;99831.78;10362755;28;20199;-74
2021/06/30 01:05:14;;;;;;;18.15;10.00;;;;;;;15.21;87.64;99821.44;10361970;28;20219;-73
2021/06/30 01:10:17;;;;;;;19.17;11.00;;;;;;;15.26;88.63;99805.56;10346878;28;20222;-73
2021/06/30 01:15:25;;;;;;;21.17;11.75;;;;;;;15.17;87.98;99810.13;10346585;28;20241;-73
2021/06/30 01:20:34;;;;;;;25.33;11.05;;;;;;;15.20;87.78;99798.13;10347032;28;20195;-74
2021/06/30 01:25:44;;;;;;;23.95;11.07;;;;;;;15.29;87.88;99805.22;10346138;28;20608;-73
2021/06/30 01:30:53;;;;;;;24.33;12.20;;;;;;;15.25;87.54;99803.88;10346712;28;20282;-73
2021/06/30 01:36:02;;;;;;;24.25;12.00;;;;;;;15.18;87.68;99794.75;10345889;28;20574;-73
2021/06/30 01:41:07;;;;;;;23.90;12.70;;;;;;;15.13;87.99;99792.53;10346184;28;20199;-74
2021/06/30 01:46:15;;;;;;;23.08;12.25;;;;;;;15.22;87.89;99794.25;10351380;28;20321;-73
2021/06/30 01:51:22;;;;;;;26.33;12.32;;;;;;;15.27;88.28;99786.44;10368289;28;20281;-73
2021/06/30 01:56:33;;;;;;;26.90;13.05;;;;;;;15.39;88.23;99786.16;10352562;28;20714;-73
2021/06/30 02:01:42;;;;;;;31.15;14.57;;;;;;;15.47;88.36;99776.16;10352719;28;20298;-73
2021/06/30 02:06:50;;;;;;;33.88;14.60;;;;;;;15.72;88.78;99762.59;10352547;28;20265;-75
2021/06/30 02:11:59;;;;;;;29.55;14.45;;;;;;;15.77;88.42;99762.03;10352432;28;20198;-73
2021/06/30 02:17:07;;;;;;;34.97;15.85;;;;;;;15.54;87.71;99757.38;10352052;28;20192;-73
2021/06/30 02:22:15;;;;;;;34.38;15.48;;;;;;;15.46;87.94;99766.34;10352355;28;20207;-74
2021/06/30 02:27:24;;;;;;;34.88;17.13;;;;;;;15.69;88.26;99779.19;10401689;28;20236;-74
2021/06/30 02:32:32;;;;;;;33.17;17.45;;;;;;;15.61;87.61;99776.50;10392871;28;20221;-74
2021/06/30 02:37:40;;;;;;;39.60;17.90;;;;;;;15.35;87.97;99772.09;10392161;28;20194;-73
2021/06/30 02:42:50;;;;;;;38.47;17.70;;;;;;;15.43;87.65;99779.38;10392241;28;20210;-73
2021/06/30 02:47:58;;;;;;;42.35;19.17;;;;;;;15.46;87.50;99776.31;10391952;28;20199;-73
2021/06/30 02:53:01;;;;;;;37.95;18.80;;;;;;;15.39;87.78;99776.16;10392257;28;20305;-74
2021/06/30 02:58:10;;;;;;;43.58;19.42;;;;;;;15.32;87.50;99780.53;10391097;28;20187;-75
2021/06/30 03:03:18;;;;;;;35.80;16.85;;;;;;;15.29;87.73;99789.00;10391848;28;20215;-73
2021/06/30 03:08:25;;;;;;;38.13;17.55;;;;;;;15.38;88.31;99784.44;10391393;28;20194;-74
2021/06/30 03:13:34;;;;;;;39.08;18.00;;;;;;;15.23;87.89;99790.50;10391733;28;20210;-74
2021/06/30 03:18:42;;;;;;;37.70;17.33;;;;;;;15.38;87.59;99795.28;10373204;28;20649;-73
2021/06/30 03:23:50;;;;;;;35.67;16.63;;;;;;;15.12;88.67;99796.25;10390682;28;20214;-74
2021/06/30 03:29:02;;;;;;;35.03;17.02;;;;;;;15.08;88.37;99804.88;10390904;28;20191;-74
2021/06/30 03:34:10;;;;;;;47.28;17.33;;;;;;;15.23;88.07;99804.03;10390086;28;20210;-74
2021/06/30 03:39:18;;;;;;;32.95;16.02;;;;;;;15.14;88.79;99809.59;10390991;28;20209;-74
2021/06/30 03:44:27;;;;;;;34.88;15.70;;;;;;;15.08;88.34;99811.13;10390039;28;20206;-73
2021/06/30 03:49:34;;;;;;;30.30;13.65;;;;;;;14.95;88.43;99810.78;10390275;28;20205;-74
2021/06/30 03:54:42;;;;;;;26.60;13.27;;;;;;;14.94;88.46;99809.06;10389731;28;20586;-75
2021/06/30 03:59:52;;;;;;;26.50;12.90;;;;;;;15.14;88.43;99821.28;10390494;28;20282;-75
2021/06/30 04:05:00;;;;;;;26.10;13.48;;;;;;;15.19;87.96;99823.47;10389485;28;20222;-75
2021/06/30 04:10:08;;;;;;;27.23;13.50;;;;;;;15.06;87.43;99834.81;10389787;28;20620;-73
2021/06/30 04:15:17;;;;;;;24.23;12.13;;;;;;;15.22;87.28;99832.13;10389597;28;20221;-75
2021/06/30 04:20:25;;;;;;;25.05;11.50;;;;;;;15.05;87.81;99849.31;10389453;28;20222;-75
2021/06/30 04:25:33;;;;;;;24.05;12.13;;;;;;;15.02;87.94;99850.50;10389149;28;20215;-75
2021/06/30 04:30:43;;;;;;;23.27;12.15;;;;;;;14.99;87.74;99855.41;10389634;28;20187;-75
2021/06/30 04:35:51;;;;;;;19.77;10.07;;;;;;;14.69;87.90;99848.72;10388721;28;20218;-73
2021/06/30 04:40:58;;;;;;;18.83;9.15;;;;;;;14.90;86.98;99846.44;10393074;28;20274;-74
2021/06/30 04:46:08;;;;;;;12.82;7.63;;;;;;;14.99;87.19;99852.69;10410607;28;20226;-74
2021/06/30 04:51:15;;;;;;;15.05;7.13;;;;;;;14.99;86.87;99850.84;10400799;28;20286;-75
2021/06/30 04:56:27;;;;;;;14.57;6.78;;;;;;;15.02;86.52;99849.66;10390119;28;20587;-75
2021/06/30 05:01:37;;;;;;;10.25;6.40;;;;;;;15.07;86.50;99852.72;10390671;28;20183;-75
2021/06/30 05:06:44;;;;;;;10.90;5.93;;;;;;;14.99;85.79;99858.94;10389495;28;20211;-73
2021/06/30 05:11:52;;;;;;;12.40;6.97;;;;;;;15.07;85.82;99868.94;10387097;28;20206;-73
2021/06/30 05:17:01;;;;;;;10.63;6.35;;;;;;;14.91;85.23;99867.03;10387298;28;20191;-73
2021/06/30 05:22:09;;;;;;;13.68;6.97;;;;;;;14.99;85.52;99863.50;10392341;28;20218;-73
2021/06/30 05:27:17;;;;;;;12.60;6.63;;;;;;;14.98;84.20;99875.34;10404057;28;20220;-73
2021/06/30 05:32:26;;;;;;;9.45;5.05;;;;;;;15.01;84.18;99875.03;10403744;28;20218;-75
2021/06/30 05:37:29;;;;;;;12.20;5.72;;;;;;;15.08;84.52;99867.09;10389041;28;20229;-74
2021/06/30 05:42:38;;;;;;;10.52;5.32;;;;;;;15.12;83.65;99874.69;10353618;28;20305;-76
2021/06/30 05:47:47;;;;;;;12.38;5.90;;;;;;;15.14;84.63;99869.13;10349081;28;20254;-74
2021/06/30 05:52:55;;;;;;;13.63;5.05;;;;;;;14.95;83.49;99868.41;10348123;28;20265;-75
2021/06/30 05:58:03;;;;;;;13.65;6.03;;;;;;;15.21;84.07;99873.69;10346464;28;20660;-75
2021/06/30 06:03:12;;;;;;;11.60;5.35;;;;;;;15.51;84.24;99865.13;10347857;28;20218;-75
2021/06/30 06:08:20;;;;;;;9.18;4.65;;;;;;;15.41;83.14;99866.16;10346867;28;20314;-74
2021/06/30 06:13:28;;;;;;;7.72;4.90;;;;;;;15.56;83.31;99870.91;10347131;28;20223;-75
2021/06/30 06:18:37;;;;;;;7.30;4.82;;;;;;;15.23;82.36;99877.09;10347019;28;20748;-75
2021/06/30 06:23:40;;;;;;;9.55;5.18;;;;;;;15.52;82.44;99874.94;10347211;28;20249;-75
2021/06/30 06:28:48;;;;;;;7.88;5.15;;;;;;;15.50;81.76;99871.56;10330730;28;20188;-75
2021/06/30 06:33:58;;;;;;;7.68;4.05;;;;;;;15.52;81.35;99864.09;10355201;28;20219;-75
2021/06/30 06:39:06;;;;;;;10.63;5.82;;;;;;;15.85;81.11;99867.63;10351425;28;20737;-75
2021/06/30 06:44:14;;;;;;;12.88;6.60;;;;;;;15.93;79.62;99862.22;10352855;28;20221;-75
2021/06/30 06:49:23;;;;;;;9.95;5.80;;;;;;;16.73;79.94;99858.59;10368194;28;20301;-75
2021/06/30 06:54:31;;;;;;;11.90;6.47;;;;;;;16.84;77.27;99866.34;10312303;28;20307;-75
2021/06/30 06:59:39;;;;;;;12.18;6.95;;;;;;;16.73;77.77;99869.44;10312728;28;20248;-75
2021/06/30 07:04:48;;;;;;;14.30;7.43;;;;;;;16.79;75.18;99863.31;10312759;28;20220;-75
2021/06/30 07:09:51;;;;;;;13.90;7.97;;;;;;;16.42;75.97;99867.53;10312531;28;20571;-75
2021/06/30 07:14:58;;;;;;;14.88;9.35;;;;;;;16.25;75.14;99874.00;10311754;28;20673;-75
2021/06/30 07:20:09;;;;;;;15.45;9.73;;;;;;;16.67;73.10;99867.44;10311989;28;20291;-75
2021/06/30 07:25:19;;;;;;;17.40;10.68;;;;;;;16.91;72.32;99864.59;10309847;28;20302;-75
2021/06/30 07:30:27;;;;;;;19.92;11.55;;;;;;;16.92;72.53;99866.31;10311074;28;20283;-75
2021/06/30 07:35:36;;;;;;;23.48;11.98;;;;;;;16.76;72.22;99861.81;10310150;28;20568;-75
2021/06/30 07:40:44;;;;;;;19.52;11.95;;;;;;;17.68;71.75;99852.88;10311142;28;20195;-75
2021/06/30 07:45:52;;;;;;;26.52;13.30;;;;;;;17.68;69.43;99859.16;10310848;28;20307;-75
2021/06/30 07:50:56;;;;;;;22.55;13.32;;;;;;;16.93;71.14;99859.84;10310641;28;20200;-74
2021/06/30 07:55:59;;;;;;;23.67;13.48;;;;;;;17.56;70.09;99854.34;10317016;28;20280;-74
2021/06/30 08:01:02;;;;;;;21.63;13.85;;;;;;;17.82;67.27;99843.91;10371065;28;20206;-74
2021/06/30 08:06:07;;;;;;;22.20;13.25;;;;;;;17.58;68.27;99861.28;10368230;28;20206;-74
2021/06/30 08:11:10;;;;;;;17.13;9.40;;;;;;;17.33;66.69;99847.03;10371854;28;20203;-74
2021/06/30 08:16:13;;;;;;;17.17;10.00;;;;;;;17.61;67.29;99849.22;10376112;28;20204;-74
2021/06/30 08:21:17;;;;;;;15.52;9.65;;;;;;;17.70;66.13;99854.38;10348036;28;20582;-74
2021/06/30 08:26:20;;;;;;;15.32;7.57;;;;;;;17.84;63.79;99855.44;10353707;28;20656;-73
2021/06/30 08:31:23;;;;;;;13.35;7.68;;;;;;;17.70;63.67;99861.69;10367350;28;20202;-72
2021/06/30 08:36:28;;;;;;;15.10;9.68;;;;;;;18.09;63.39;99866.94;10351560;28;20203;-72
2021/06/30 08:41:30;;;;;;;16.00;9.73;;;;;;;18.16;64.57;99868.94;10349005;28;20202;-74
2021/06/30 08:46:34;;;;;;;17.00;10.13;;;;;;;17.90;65.08;99862.84;10347535;28;20323;-73
2021/06/30 08:51:39;;;;;;;16.45;10.70;;;;;;;18.32;65.32;99864.16;10354318;28;20199;-74
2021/06/30 08:56:42;;;;;;;15.88;10.50;;;;;;;18.20;64.97;99868.34;10348377;28;20245;-73
2021/06/30 09:01:45;;;;;;;15.90;9.98;;;;;;;18.55;64.00;99874.06;10347947;28;20199;-73
2021/06/30 09:06:51;;;;;;;20.63;11.00;;;;;;;18.72;62.80;99867.38;10347208;28;20229;-73
2021/06/30 09:11:55;;;;;;;16.20;9.93;;;;;;;18.26;64.14;99883.06;10350097;28;20203;-72
2021/06/30 09:17:13;;;;;;;15.25;10.00;;;;;;;18.27;63.44;99884.78;10375792;28;20202;-74
2021/06/30 09:22:19;;;;;;;17.50;10.00;;;;;;;17.88;65.27;99885.78;10388603;28;20218;-74
2021/06/30 09:27:39;;;;;;;15.73;10.38;;;;;;;18.63;63.64;99895.72;10392572;28;20194;-73
2021/06/30 09:33:00;;;;;;;17.30;10.80;;;;;;;19.31;63.11;99899.09;10391941;28;20218;-73
2021/06/30 09:38:32;;;;;;;16.20;10.77;;;;;;;19.17;61.60;99892.66;10387368;28;20259;-73
2021/06/30 09:43:35;;;;;;;15.50;10.32;;;;;;;18.75;63.51;99894.19;10386918;28;20695;-73
2021/06/30 09:48:38;;;;;;;16.55;10.45;;;;;;;19.62;60.99;99895.22;10386502;28;20203;-71
2021/06/30 09:53:43;;;;;;;10.98;8.93;;;;;;;19.90;60.72;99889.81;10364805;28;20222;-72
2021/06/30 09:58:46;;;;;;;11.07;8.68;;;;;;;20.25;58.75;99892.59;10365612;28;20233;-73
2021/06/30 10:03:49;;;;;;;11.43;8.60;;;;;;;20.59;59.68;99891.75;10364592;28;20215;-73
2021/06/30 10:08:55;;;;;;;9.20;7.25;;;;;;;21.50;56.49;99891.47;10370589;28;20217;-72
2021/06/30 10:13:59;;;;;;;11.57;7.80;;;;;;;20.55;57.11;99895.94;10365127;28;20217;-73
2021/06/30 10:19:02;;;;;;;9.70;6.82;;;;;;;19.91;57.58;99894.22;10372961;28;20226;-73
2021/06/30 10:24:08;;;;;;;8.52;6.82;;;;;;;19.50;59.09;99896.75;10352083;28;20219;-72
2021/06/30 10:29:12;;;;;;;9.93;7.03;;;;;;;19.89;59.68;99890.88;10352302;28;20223;-75
2021/06/30 10:34:15;;;;;;;10.45;7.13;;;;;;;19.71;58.43;99894.03;10352178;28;20215;-74
2021/06/30 10:39:21;;;;;;;9.07;6.80;;;;;;;19.86;58.61;99894.81;10367221;28;20202;-75
2021/06/30 10:44:25;;;;;;;7.90;7.10;;;;;;;20.04;59.02;99898.94;10351462;28;20231;-73
2021/06/30 10:49:30;;;;;;;8.88;6.47;;;;;;;20.04;56.98;99891.59;10351882;28;20212;-74
2021/06/30 10:54:42;;;;;;;9.57;7.68;;;;;;;19.59;58.83;99899.19;10350894;28;20214;-74
2021/06/30 11:00:17;;;;;;;8.35;7.28;;;;;;;19.19;60.82;99876.94;10351510;28;20192;-74
2021/06/30 11:05:34;;;;;;;7.25;6.32;;;;;;;19.55;58.95;99889.66;10349662;28;20596;-74
2021/06/30 11:10:53;;;;;;;9.00;6.68;;;;;;;20.31;57.80;99884.47;10351149;28;20210;-74
2021/06/30 11:15:56;;;;;;;6.30;5.53;;;;;;;20.73;55.02;99888.06;10350105;28;20315;-73
2021/06/30 11:21:43;;;;;;;7.13;6.07;;;;;;;20.75;57.14;99888.69;10351189;28;20541;-73
2021/06/30 11:26:49;;;;;;;8.10;6.18;;;;;;;21.79;53.15;99892.16;10350186;28;20208;-73
2021/06/30 11:31:52;;;;;;;7.28;5.60;;;;;;;23.09;51.95;99887.69;10351206;28;20649;-73
2021/06/30 11:36:55;;;;;;;8.18;6.70;;;;;;;22.30;51.28;99880.56;10350306;28;20660;-73
2021/06/30 11:42:02;;;;;;;10.65;8.00;;;;;;;22.32;50.92;99892.97;10350040;28;20198;-73
2021/06/30 11:47:06;;;;;;;7.75;6.93;;;;;;;22.56;51.63;99885.13;10350777;28;20726;-72
2021/06/30 11:52:10;;;;;;;14.35;7.25;;;;;;;23.33;49.62;99896.19;10351904;28;20656;-73
2021/06/30 11:57:14;;;;;;;9.90;6.90;;;;;;;22.94;51.01;99889.84;10349840;28;20188;-73
2021/06/30 12:02:17;;;;;;;7.78;6.97;;;;;;;24.60;47.07;99874.03;10349565;28;20211;-74
2021/06/30 12:07:20;;;;;;;7.32;6.63;;;;;;;24.63;46.77;99870.81;10363988;28;20228;-74
2021/06/30 12:12:31;;;;;;;7.97;7.18;;;;;;;23.60;46.39;99880.41;10349226;28;20215;-74
2021/06/30 12:17:34;;;;;;;7.38;6.68;;;;;;;24.43;48.42;99869.16;10351272;28;20195;-74
2021/06/30 12:22:39;;;;;;;7.28;6.55;;;;;;;22.77;49.24;99864.84;10348990;28;20222;-73
2021/06/30 12:27:44;;;;;;;9.18;8.10;;;;;;;23.14;48.63;99871.44;10347461;28;20217;-73
2021/06/30 12:32:51;;;;;;;7.60;6.80;;;;;;;23.59;48.90;99870.53;10361430;28;20203;-74
2021/06/30 12:37:55;;;;;;;7.50;6.28;;;;;;;23.37;47.77;99868.16;10380727;28;20190;-73
2021/06/30 12:43:21;;;;;;;10.23;8.02;;;;;;;23.32;48.54;99861.66;10379412;28;20219;-73
2021/06/30 12:48:25;;;;;;;8.77;7.40;;;;;;;23.47;48.69;99845.72;10365201;28;20202;-74
2021/06/30 12:53:32;;;;;;;9.65;7.65;;;;;;;23.27;50.56;99856.81;10366848;28;20223;-74
2021/06/30 12:58:42;;;;;;;9.02;7.95;;;;;;;22.82;51.55;99851.38;10385353;28;20240;-74
2021/06/30 13:03:47;;;;;;;14.18;9.15;;;;;;;22.43;52.88;99853.16;10386951;28;20349;-74
2021/06/30 13:08:59;;;;;;;11.55;8.70;;;;;;;22.28;53.21;99858.88;10363621;28;20231;-74
2021/06/30 13:14:09;;;;;;;13.27;9.75;;;;;;;21.68;53.04;99863.53;10347196;28;20287;-74
2021/06/30 13:19:12;;;;;;;12.77;9.48;;;;;;;22.13;53.03;99858.25;10347451;28;20199;-74
2021/06/30 13:24:17;;;;;;;12.35;9.32;;;;;;;22.50;52.25;99861.38;10346592;28;20217;-74
2021/06/30 13:34:48;;;;;;;10.68;9.52;;;;;;;22.21;52.45;99857.19;10346010;28;20222;-74
2021/06/30 13:39:51;;;;;;;11.23;9.23;;;;;;;22.23;52.47;99855.09;10348758;28;20562;-74
2021/06/30 13:44:59;;;;;;;10.95;9.70;;;;;;;21.70;54.38;99849.66;10353211;28;20219;-73
2021/06/30 13:50:03;;;;;;;13.35;11.00;;;;;;;21.60;54.40;99863.72;10353570;28;20731;-73
2021/06/30 13:55:07;;;;;;;15.80;10.75;;;;;;;21.00;56.12;99861.69;10352824;28;20299;-73
2021/06/30 14:00:12;;;;;;;13.38;10.57;;;;;;;21.43;54.51;99860.56;10351921;28;20199;-73
2021/06/30 14:05:15;;;;;;;14.38;9.80;;;;;;;21.30;54.99;99863.28;10355269;28;20211;-73
2021/06/30 14:10:18;;;;;;;14.57;9.57;;;;;;;20.61;56.21;99864.28;10358490;28;20215;-73
2021/06/30 14:15:22;;;;;;;14.93;9.73;;;;;;;21.07;55.12;99861.75;10353216;28;20219;-73
2021/06/30 14:20:25;;;;;;;12.27;9.25;;;;;;;21.38;54.27;99849.44;10352813;28;20199;-73
2021/06/30 14:25:30;;;;;;;13.00;8.93;;;;;;;21.61;53.86;99851.75;10351899;28;20207;-74
2021/06/30 14:30:34;;;;;;;10.57;8.25;;;;;;;21.25;55.40;99852.97;10352281;28;20212;-73
2021/06/30 14:35:37;;;;;;;9.43;7.55;;;;;;;21.07;55.85;99856.31;10357576;28;20289;-73
2021/06/30 14:40:40;;;;;;;9.38;7.68;;;;;;;20.90;54.72;99864.00;10348113;28;20223;-73
2021/06/30 14:45:45;;;;;;;9.32;6.97;;;;;;;21.22;53.93;99867.88;10351789;28;20235;-74
2021/06/30 14:50:48;;;;;;;7.80;5.97;;;;;;;20.97;54.41;99856.66;10360969;28;20622;-73
2021/06/30 14:55:51;;;;;;;8.70;6.70;;;;;;;20.67;54.70;99863.47;10387131;22;20239;-74
2021/06/30 15:00:56;;;;;;;7.15;6.15;;;;;;;20.96;54.33;99865.06;10368360;28;20189;-74
2021/06/30 15:05:59;;;;;;;9.02;7.07;;;;;;;20.27;55.53;99863.25;10387185;28;20226;-74
2021/06/30 15:11:02;;;;;;;8.65;7.35;;;;;;;20.27;56.07;99863.25;10386507;28;20221;-76
2021/06/30 15:16:07;;;;;;;7.93;6.57;;;;;;;20.24;57.50;99866.34;10364937;28;20230;-73
2021/06/30 15:21:10;;;;;;;6.97;6.13;;;;;;;20.50;57.11;99872.00;10364122;28;20657;-76
2021/06/30 15:26:13;;;;;;;9.35;7.05;;;;;;;20.56;56.64;99860.25;10358101;28;20271;-74
2021/06/30 15:31:18;;;;;;;7.60;6.38;;;;;;;20.37;56.72;99865.63;10350672;28;20219;-72
2021/06/30 15:36:21;;;;;;;7.90;6.80;;;;;;;20.70;55.00;99873.97;10348785;28;20715;-75
2021/06/30 15:41:25;;;;;;;8.40;7.00;;;;;;;20.20;57.23;99873.25;10349415;28;20198;-74
2021/06/30 15:46:30;;;;;;;8.52;6.68;;;;;;;19.30;57.86;99882.94;10351209;28;20550;-74
2021/06/30 15:51:34;;;;;;;9.02;6.90;;;;;;;19.87;57.52;99877.41;10350973;28;20208;-74
2021/06/30 15:56:37;;;;;;;8.25;6.80;;;;;;;19.86;57.53;99881.19;10350745;28;20223;-74
2021/06/30 16:01:43;;;;;;;9.10;7.03;;;;;;;20.13;56.76;99873.22;10353133;28;20191;-74
2021/06/30 16:06:49;;;;;;;7.50;6.00;;;;;;;19.93;57.17;99873.06;10354501;28;20203;-75
2021/06/30 16:11:51;;;;;;;7.72;6.10;;;;;;;19.64;57.55;99869.47;10350340;28;20553;-70
2021/06/30 16:16:56;;;;;;;7.63;6.10;;;;;;;19.63;57.82;99878.69;10349524;28;20502;-73
2021/06/30 16:21:59;;;;;;;8.65;5.63;;;;;;;19.14;58.91;99873.13;10366362;28;20720;-71
2021/06/30 16:27:02;;;;;;;6.80;5.25;;;;;;;19.41;58.89;99875.09;10363624;28;20227;-73
2021/06/30 16:32:07;;;;;;;7.35;6.03;;;;;;;19.26;60.19;99887.09;10349106;28;20195;-72
2021/06/30 16:37:12;;;;;;;8.07;5.82;;;;;;;19.32;59.50;99887.16;10348611;28;20223;-73
2021/06/30 16:42:16;;;;;;;7.80;5.70;;;;;;;18.84;60.40;99891.41;10359202;28;20192;-71
2021/06/30 16:47:20;;;;;;;6.75;5.43;;;;;;;19.11;59.50;99884.41;10349475;28;20559;-73
2021/06/30 16:52:23;;;;;;;7.65;5.57;;;;;;;19.31;59.50;99887.34;10347213;28;20583;-73
2021/06/30 16:57:26;;;;;;;6.95;5.40;;;;;;;19.06;60.45;99882.28;10362445;28;20187;-73
2021/06/30 17:02:31;;;;;;;6.45;5.30;;;;;;;19.10;61.06;99882.72;10350226;28;20329;-73
2021/06/30 17:07:34;;;;;;;8.60;6.25;;;;;;;19.02;60.05;99889.13;10346356;28;20211;-73
2021/06/30 17:12:39;;;;;;;7.45;5.53;;;;;;;18.41;61.09;99891.25;10346707;28;20199;-73
2021/06/30 17:17:43;;;;;;;6.80;5.35;;;;;;;18.67;60.74;99893.47;10345921;28;20660;-73
2021/06/30 17:22:49;;;;;;;7.20;5.53;;;;;;;18.53;61.30;99898.72;10344690;28;20226;-72
2021/06/30 17:27:52;;;;;;;7.45;5.70;;;;;;;18.53;61.24;99897.88;10345945;28;20226;-72
2021/06/30 17:32:57;;;;;;;7.63;6.03;;;;;;;18.23;62.16;99886.16;10358347;28;20207;-73
2021/06/30 17:38:02;;;;;;;7.72;5.53;;;;;;;18.48;62.18;99886.72;10346230;28;20712;-74
2021/06/30 17:43:05;;;;;;;7.80;5.65;;;;;;;18.41;62.21;99881.22;10345875;28;20218;-73
2021/06/30 17:48:09;;;;;;;8.40;5.53;;;;;;;18.12;63.58;99874.72;10375023;28;20590;-72
2021/06/30 17:53:13;;;;;;;8.30;5.50;;;;;;;18.19;63.75;99891.13;10386189;28;20596;-71
2021/06/30 17:58:16;;;;;;;6.47;4.43;;;;;;;18.49;63.38;99894.72;10385795;28;20190;-73
2021/06/30 18:03:20;;;;;;;8.38;5.28;;;;;;;18.36;63.18;99914.38;10385491;28;20639;-72
2021/06/30 18:08:23;;;;;;;8.32;5.68;;;;;;;18.04;64.67;99915.56;10384082;28;20293;-73
2021/06/30 18:13:26;;;;;;;7.13;4.60;;;;;;;17.96;64.80;99937.34;10385639;28;20689;-74
2021/06/30 18:18:30;;;;;;;7.75;4.45;;;;;;;18.04;65.06;99944.59;10386114;28;20660;-72
2021/06/30 18:23:33;;;;;;;8.23;4.35;;;;;;;18.30;64.55;99952.38;10385876;28;20597;-73
2021/06/30 18:28:36;;;;;;;4.22;3.40;;;;;;;17.84;65.11;99953.25;10367534;28;20213;-74
2021/06/30 18:33:40;;;;;;;7.75;3.70;;;;;;;17.74;65.91;99952.63;10389447;28;20249;-73
2021/06/30 18:38:43;;;;;;;5.63;3.28;;;;;;;17.78;65.60;99950.41;10354914;28;20608;-72
2021/06/30 18:43:46;;;;;;;4.65;2.97;;;;;;;17.66;66.01;99950.84;10354754;28;20231;-72
2021/06/30 18:48:50;;;;;;;4.65;3.00;;;;;;;17.67;66.68;99965.25;10355024;28;20243;-73
2021/06/30 18:53:53;;;;;;;5.72;3.97;;;;;;;17.36;67.57;99968.88;10329861;28;20249;-73
2021/06/30 18:58:56;;;;;;;6.70;3.63;;;;;;;17.06;68.26;99964.22;10354444;28;20242;-73
2021/06/30 19:04:01;;;;;;;7.57;4.05;;;;;;;17.14;68.55;99980.50;10353501;28;20242;-73
2021/06/30 19:09:04;;;;;;;7.10;4.50;;;;;;;17.08;68.31;99976.59;10324506;28;20239;-73
2021/06/30 19:14:08;;;;;;;11.32;5.13;;;;;;;17.03;68.66;99978.97;10311888;28;20270;-73
2021/06/30 19:19:13;;;;;;;8.95;4.60;;;;;;;17.26;69.47;99989.94;10313766;28;20226;-73
2021/06/30 19:24:16;;;;;;;10.70;5.93;;;;;;;16.88;72.51;100005.19;10311116;28;20246;-74
2021/06/30 19:29:19;;;;;;;11.30;5.75;;;;;;;16.27;74.28;100015.63;10312560;28;20647;-73
2021/06/30 19:34:24;;;;;;;10.32;5.97;;;;;;;15.84;76.38;100017.63;10311673;28;20231;-74
2021/06/30 19:39:27;;;;;;;12.50;7.30;;;;;;;15.77;78.44;100027.41;10309723;28;20227;-71
2021/06/30 19:44:31;;;;;;;12.57;6.43;;;;;;;15.23;78.87;100025.06;10268894;28;20331;-73
2021/06/30 19:49:36;;;;;;;14.20;7.57;;;;;;;14.76;81.44;100039.03;10269477;28;20232;-74
2021/06/30 19:54:39;;;;;;;14.77;7.47;;;;;;;14.82;81.53;100041.09;10273383;28;20743;-74
2021/06/30 19:59:42;;;;;;;17.52;9.07;;;;;;;14.79;82.16;100039.53;10270066;28;20223;-73
2021/06/30 20:04:46;;;;;;;21.25;10.35;;;;;;;14.86;81.88;100047.84;10271362;28;20338;-74
2021/06/30 20:09:49;;;;;;;26.10;11.68;;;;;;;14.68;82.10;100047.09;10272263;28;20963;-75
2021/06/30 20:14:52;;;;;;;21.27;10.45;;;;;;;14.34;82.03;100045.97;10272366;28;20346;-75
2021/06/30 20:19:56;;;;;;;18.13;9.38;;;;;;;14.40;82.14;100054.47;10274811;28;20318;-76
2021/06/30 20:24:59;;;;;;;18.52;9.38;;;;;;;14.82;82.24;100047.34;10272494;28;20263;-75
2021/06/30 20:30:02;;;;;;;20.63;9.68;;;;;;;14.72;81.60;100051.16;10272586;28;20326;-75
2021/06/30 20:35:08;;;;;;;20.65;9.90;;;;;;;14.63;81.29;100055.66;10281440;28;20231;-75
2021/06/30 20:40:13;;;;;;;22.25;10.88;;;;;;;14.74;81.27;100055.41;10305406;28;20235;-75
2021/06/30 20:45:18;;;;;;;22.52;10.77;;;;;;;13.89;81.62;100046.09;10310379;28;20239;-74
2021/06/30 20:50:22;;;;;;;22.05;10.20;;;;;;;14.18;82.16;100051.25;10309377;28;20710;-74
2021/06/30 20:55:27;;;;;;;23.95;11.38;;;;;;;14.52;81.18;100047.81;10309023;28;20250;-75
2021/06/30 21:00:30;;;;;;;19.67;9.85;;;;;;;14.55;81.19;100039.38;10307938;28;20978;-74
2021/06/30 21:05:36;;;;;;;21.77;9.65;;;;;;;14.39;80.50;100056.31;10307955;28;20314;-74
2021/06/30 21:10:39;;;;;;;17.17;9.05;;;;;;;13.96;81.01;100051.69;10291188;28;20318;-74
2021/06/30 21:15:42;;;;;;;18.10;8.77;;;;;;;13.96;80.82;100067.91;10309681;28;20742;-74
2021/06/30 21:20:47;;;;;;;18.45;8.65;;;;;;;14.22;80.25;100063.44;10309593;28;20654;-74
2021/06/30 21:25:49;;;;;;;19.55;9.65;;;;;;;14.36;79.49;100068.25;10308757;28;20231;-74
2021/06/30 21:30:54;;;;;;;16.52;9.13;;;;;;;14.35;78.74;100065.72;10307750;28;20235;-74
2021/06/30 21:35:59;;;;;;;15.98;8.80;;;;;;;14.09;78.79;100063.81;10310767;28;20730;-75
2021/06/30 21:41:01;;;;;;;18.88;9.88;;;;;;;14.12;78.72;100066.22;10309663;28;20239;-74
2021/06/30 21:46:05;;;;;;;18.88;8.77;;;;;;;14.16;79.36;100070.28;10307704;28;20958;-75
2021/06/30 21:51:09;;;;;;;19.27;9.40;;;;;;;13.86;78.63;100071.53;10307546;28;20649;-74
2021/06/30 21:56:12;;;;;;;17.70;9.30;;;;;;;14.08;79.50;100070.22;10306413;28;20230;-74
2021/06/30 22:01:14;;;;;;;15.80;8.63;;;;;;;14.21;79.35;100075.25;10309856;28;20746;-75
2021/06/30 22:06:19;;;;;;;16.23;7.88;;;;;;;14.24;78.12;100074.09;10297276;28;20242;-74
2021/06/30 22:11:23;;;;;;;14.30;7.28;;;;;;;14.10;77.39;100079.03;10315823;28;20239;-74
2021/06/30 22:16:26;;;;;;;12.88;7.55;;;;;;;14.08;77.05;100078.31;10312967;28;20322;-74
2021/06/30 22:21:30;;;;;;;11.15;7.05;;;;;;;13.94;77.57;100086.97;10312911;28;20231;-75
2021/06/30 22:26:33;;;;;;;12.60;7.15;;;;;;;13.91;77.31;100081.88;10311612;28;20235;-75
2021/06/30 22:31:36;;;;;;;9.20;5.72;;;;;;;13.88;76.86;100082.19;10311735;28;20570;-75
2021/06/30 22:36:41;;;;;;;10.90;5.93;;;;;;;14.01;77.19;100081.78;10313835;28;20242;-75
2021/06/30 22:41:44;;;;;;;13.23;7.10;;;;;;;14.01;77.33;100084.50;10313982;28;20314;-75
2021/06/30 22:46:47;;;;;;;10.65;6.72;;;;;;;13.98;76.84;100077.53;10313633;28;20349;-74
2021/06/30 22:51:51;;;;;;;9.68;6.50;;;;;;;13.88;76.85;100080.34;10313873;28;20235;-75
2021/06/30 22:56:54;;;;;;;9.25;6.43;;;;;;;14.08;77.65;100080.19;10312131;28;20235;-75
2021/06/30 23:01:57;;;;;;;10.20;6.03;;;;;;;13.99;76.89;100081.09;10295875;28;20231;-75
2021/06/30 23:07:02;;;;;;;10.90;6.82;;;;;;;13.82;76.66;100074.69;10294975;28;20233;-75
2021/06/30 23:12:05;;;;;;;13.55;6.78;;;;;;;13.31;77.07;100068.03;10310571;28;20762;-76
2021/06/30 23:17:08;;;;;;;14.63;7.68;;;;;;;13.73;76.32;100060.25;10311764;28;20247;-76
2021/06/30 23:22:12;;;;;;;14.90;8.35;;;;;;;13.51;76.55;100063.38;10311390;28;20242;-75
2021/06/30 23:27:15;;;;;;;15.15;8.45;;;;;;;13.33;77.04;100076.78;10311077;28;20242;-75
2021/06/30 23:32:18;;;;;;;18.80;10.63;;;;;;;13.25;77.02;100066.78;10309469;28;20714;-75